Aviation Digital Data Service (ADDS)

Output produced by METARs form (0435 UTC 19 April 2015)
found at http://aviationweather.gov/adds/metars/
 
KBWI 182333Z 1900/2006 29006KT P6SM OVC250 
     FM190400 32006KT P6SM SKC 
     FM190600 04010KT P6SM SKC 
     FM191500 08011KT P6SM SCT250 
     FM192100 10011G19KT P6SM BKN050 
     FM192200 10012G20KT 6SM -RA BKN030 
     FM200300 07019KT 6SM -RA OVC008 
     FM200400 07020KT 2SM RA OVC008